Oslo, Norvegjia

10:29 AM CEST on gusht 26, 2016 (GMT +0200)
Gardermoen | | Change Station

Elev 679 ft 60.21 °N, 11.08 °E | Updated 9 minutes ago

Mostly Cloudy
shumica me re
63 °F
Feels Like 63 °F
N
4
Era e paqendrueshme Era from Lindje

Sot
High -- | Low -- °F
--% Chance of Precip.
Yesterday
High -- | Low -- °F
Precip. -- ne
Presioni 29.83 ne
Visioni 5.6 milje
Clouds re te shperndara 400 ft
shumica me re 800 ft
Pika E Veses 61 °F
Lageshtira E ajrit 94%
Rainfall 0.00 ne
Snow Depth Not available.
5:57 AM 8:37 PM
Last Quarter, 37% visible
METAR ENGM 260820Z 10003KT 060V160 9000 SCT004 BKN008 17/16 Q1010 TEMPO SCT006 BKN012
Presioni 29.83 ne
Visioni 5.6 milje
Clouds re te shperndara 400 ft
shumica me re 800 ft
Pika E Veses 61 °F
Lageshtira E ajrit 94%
Rainfall 0.00 ne
Snow Depth Not available.
5:57 AM 8:37 PM
Last Quarter, 37% visible
METAR ENGM 260820Z 10003KT 060V160 9000 SCT004 BKN008 17/16 Q1010 TEMPO SCT006 BKN012

10-Day Weather Forecast

×

Almanac

Astronomy

Aug. 26, 2016 Rise Set
Actual Time
Civil Twilight
Nautical Twilight
Astronomical Twilight
Moon
Length Of Visible Light
Length of Day
Tomorrow will be .
, % of the Moon is Illuminated

Today's Extremes

Country Highs Country Lows

Community

WunderPhotos

Upload Photos

1,935,062 photos uploaded!

WunderBlog® & News

Nearby

Air Quality

  Air Quality AQ Index Pollutant
Not available.

Snow Depth

Station Depth Elevation

Earthquake Activity

City Distance Mag. Time & Date
Minimum magnitude displayed is 2.5.

Coastal Water Temperatures

Vend Temperatura

Stations

Nearby Weather Stations

Station Location Temp Ftohtesia E erses Pika E Veses Lageshtira E ajrit Era Precip. Elev te freskuara(Te Dhenat) Type